Time;durP1;ratioP1;P1;durP2;ratioP2;P2;SDS_P1;SDS_P2;PMS_P1;PMS_P2;Temp;Humidity;BMP_temperature;BMP_pressure;BME280_temperature;BME280_humidity;BME280_pressure;Samples;Min_cycle;Max_cycle;Signal;HPM_P1;HPM_P2
2023/03/27 00:00:40;;;;;;;33.03;18.92;;;;;;;10.22;52.09;94047.91;5012956;28;20228;-70
2023/03/27 00:03:07;;;;;;;32.85;16.88;;;;;;;10.07;52.33;94022.44;5012663;28;20215;-70
2023/03/27 00:05:34;;;;;;;29.58;15.57;;;;;;;9.78;53.01;94041.56;5012409;28;20588;-70
2023/03/27 00:08:02;;;;;;;26.98;16.42;;;;;;;9.76;53.18;94038.28;5012717;28;20296;-69
2023/03/27 00:10:29;;;;;;;29.40;17.17;;;;;;;9.79;53.35;94046.56;5012052;28;20620;-70
2023/03/27 00:12:56;;;;;;;28.92;15.73;;;;;;;9.90;52.63;94029.09;5009886;28;20208;-71
2023/03/27 00:15:23;;;;;;;31.73;16.92;;;;;;;9.79;52.99;94044.03;5012168;28;20235;-70
2023/03/27 00:17:53;;;;;;;26.83;15.07;;;;;;;9.74;53.60;94045.97;5012040;28;20208;-70
2023/03/27 00:20:21;;;;;;;30.17;16.23;;;;;;;9.83;53.67;94024.41;5010930;28;20200;-70
2023/03/27 00:22:54;;;;;;;32.67;17.63;;;;;;;9.69;53.95;94041.97;5011541;28;20310;-70
2023/03/27 00:25:22;;;;;;;27.98;17.25;;;;;;;9.66;54.51;94047.19;5008857;28;20595;-70
2023/03/27 00:27:49;;;;;;;27.45;16.85;;;;;;;9.78;53.67;94026.34;5011716;28;20228;-70
2023/03/27 00:30:17;;;;;;;26.98;14.50;;;;;;;9.77;53.67;94006.94;5011910;28;20209;-70
2023/03/27 00:32:44;;;;;;;20.25;12.70;;;;;;;9.57;53.66;94025.63;5011415;28;20228;-69
2023/03/27 00:35:11;;;;;;;25.77;13.68;;;;;;;9.59;53.87;94054.28;5010696;28;20262;-69
2023/03/27 00:37:37;;;;;;;24.92;15.20;;;;;;;9.87;53.55;93998.00;5012147;28;20244;-70
2023/03/27 00:40:07;;;;;;;23.55;12.35;;;;;;;9.71;53.53;94004.69;5011415;28;20204;-70
2023/03/27 00:42:36;;;;;;;23.80;12.80;;;;;;;9.64;53.96;94026.19;5011509;28;20193;-69
2023/03/27 00:45:02;;;;;;;27.73;17.10;;;;;;;9.73;54.05;94002.91;5011859;28;20232;-69
2023/03/27 00:47:32;;;;;;;37.55;17.02;;;;;;;9.66;53.95;94014.22;5011503;28;20255;-70
2023/03/27 00:50:01;;;;;;;29.48;16.17;;;;;;;9.58;54.22;93979.09;5011677;28;20212;-70
2023/03/27 00:52:30;;;;;;;35.20;16.58;;;;;;;9.71;53.87;93999.59;5011572;28;20228;-70
2023/03/27 00:54:59;;;;;;;31.05;15.95;;;;;;;9.68;53.51;93999.75;5011588;28;20208;-70
2023/03/27 00:57:26;;;;;;;26.45;15.57;;;;;;;9.65;54.15;93990.56;5011502;28;20201;-70
2023/03/27 00:59:57;;;;;;;26.40;15.35;;;;;;;9.53;54.59;93999.59;5011446;28;20251;-70
2023/03/27 01:02:25;;;;;;;28.58;16.65;;;;;;;9.65;53.72;93969.47;5009851;28;20593;-69
2023/03/27 01:04:53;;;;;;;25.27;14.00;;;;;;;9.62;54.15;93974.69;5011345;28;20619;-69
2023/03/27 01:07:20;;;;;;;24.40;14.48;;;;;;;9.52;54.21;93982.72;5010662;28;20263;-70
2023/03/27 01:09:46;;;;;;;21.50;12.75;;;;;;;9.71;53.89;93964.09;5011133;28;20247;-69
2023/03/27 01:12:30;;;;;;;22.25;12.73;;;;;;;9.63;54.31;93981.41;5011417;28;20216;-70
2023/03/27 01:15:09;;;;;;;21.88;13.25;;;;;;;9.71;54.45;93967.44;5010991;28;20711;-70
2023/03/27 01:18:01;;;;;;;23.65;12.80;;;;;;;9.63;54.27;93959.41;5011097;28;20204;-70
2023/03/27 01:21:18;;;;;;;18.92;11.55;;;;;;;9.72;54.10;93958.94;5010934;28;20227;-70
2023/03/27 01:24:18;;;;;;;26.25;13.07;;;;;;;9.95;53.12;93941.78;4984056;28;20299;-69
2023/03/27 01:27:04;;;;;;;21.75;11.73;;;;;;;9.83;53.58;93953.38;4987893;28;20225;-70
2023/03/27 01:30:01;;;;;;;21.35;12.02;;;;;;;9.76;53.63;93942.69;5008697;28;20287;-70
2023/03/27 01:33:05;;;;;;;23.27;11.65;;;;;;;9.63;53.98;93954.34;5009072;28;20321;-70
2023/03/27 01:36:04;;;;;;;21.70;10.85;;;;;;;9.81;53.89;93955.97;5003954;28;20208;-69
2023/03/27 01:39:04;;;;;;;15.55;10.48;;;;;;;9.74;54.22;93951.28;5001802;28;20227;-70
2023/03/27 01:41:35;;;;;;;20.85;11.60;;;;;;;9.90;54.20;93954.69;4990004;28;20193;-70
2023/03/27 01:44:07;;;;;;;19.83;10.95;;;;;;;9.67;54.64;93942.31;5008522;28;20205;-69
2023/03/27 01:46:40;;;;;;;18.90;10.57;;;;;;;9.74;54.12;93933.50;5010306;28;20200;-69
2023/03/27 01:49:13;;;;;;;21.05;11.55;;;;;;;9.68;54.73;93928.72;5009837;28;20623;-71
2023/03/27 01:51:43;;;;;;;21.08;11.80;;;;;;;9.55;54.77;93931.88;4998854;28;20228;-69
2023/03/27 01:54:19;;;;;;;21.48;10.70;;;;;;;9.55;54.61;93926.78;5010336;28;20236;-69
2023/03/27 01:56:52;;;;;;;20.60;10.05;;;;;;;9.68;54.34;93923.66;5009413;28;20290;-70
2023/03/27 01:59:22;;;;;;;17.55;10.55;;;;;;;9.51;55.44;93921.94;5010474;28;20266;-70
2023/03/27 02:01:54;;;;;;;16.17;9.30;;;;;;;9.40;55.50;93927.50;5009989;28;20208;-69
2023/03/27 02:04:28;;;;;;;13.25;8.60;;;;;;;9.50;55.39;93935.50;5009754;28;20622;-70
2023/03/27 02:06:59;;;;;;;15.90;8.30;;;;;;;9.53;55.19;93915.91;5009752;28;20478;-68
2023/03/27 02:09:33;;;;;;;13.65;8.25;;;;;;;9.42;54.92;93925.72;5009690;28;20201;-69
2023/03/27 02:12:07;;;;;;;15.13;8.20;;;;;;;9.63;54.53;93918.00;5009686;28;20230;-69
2023/03/27 02:14:39;;;;;;;16.02;8.32;;;;;;;9.49;54.20;93914.41;5010358;28;20207;-70
2023/03/27 02:17:11;;;;;;;16.00;8.32;;;;;;;9.68;54.12;93916.03;5010149;28;20228;-70
2023/03/27 02:19:46;;;;;;;13.65;8.07;;;;;;;9.63;54.26;93920.53;5009809;28;20258;-69
2023/03/27 02:22:13;;;;;;;11.38;7.55;;;;;;;9.40;54.67;93904.69;5010259;28;20219;-68
2023/03/27 02:24:42;;;;;;;11.50;8.07;;;;;;;9.44;54.42;93874.94;5009260;28;20224;-72
2023/03/27 02:27:14;;;;;;;8.63;6.78;;;;;;;9.10;55.60;93913.75;5009869;28;20228;-72
2023/03/27 02:29:58;;;;;;;9.95;7.20;;;;;;;9.15;54.99;93876.34;5010148;28;20204;-71
2023/03/27 02:32:34;;;;;;;14.05;7.35;;;;;;;9.01;55.55;93886.28;5009928;28;20224;-71
2023/03/27 02:35:20;;;;;;;8.90;6.63;;;;;;;8.86;55.79;93873.44;5010279;28;20203;-71
2023/03/27 02:37:58;;;;;;;8.77;6.15;;;;;;;8.87;55.59;93864.13;4998349;28;20231;-71
2023/03/27 02:40:38;;;;;;;9.77;6.55;;;;;;;8.70;55.55;93877.53;5009686;28;20728;-72
2023/03/27 02:43:10;;;;;;;6.93;6.32;;;;;;;8.65;56.04;93844.03;5010130;28;20689;-72
2023/03/27 02:45:45;;;;;;;10.05;7.78;;;;;;;8.65;56.64;93851.63;5009852;28;20200;-70
2023/03/27 02:48:18;;;;;;;11.65;7.15;;;;;;;8.64;56.80;93837.31;5009243;28;20760;-71
2023/03/27 02:50:50;;;;;;;11.35;6.50;;;;;;;8.67;56.02;93829.56;5009100;28;20259;-70
2023/03/27 02:53:22;;;;;;;9.48;6.38;;;;;;;8.44;56.17;93833.13;5009457;28;20612;-71
2023/03/27 02:55:54;;;;;;;7.55;6.20;;;;;;;8.26;56.15;93821.28;5010153;28;20235;-70
2023/03/27 02:58:29;;;;;;;13.25;6.57;;;;;;;8.43;57.44;93807.88;5009424;28;20287;-71
2023/03/27 03:00:59;;;;;;;6.97;6.00;;;;;;;8.39;57.42;93824.13;5010327;28;20261;-70
2023/03/27 03:03:30;;;;;;;9.80;6.95;;;;;;;8.18;57.44;93820.78;5009521;28;20260;-70
2023/03/27 03:05:58;;;;;;;9.65;6.82;;;;;;;8.20;57.87;93827.41;5010362;28;20200;-70
2023/03/27 03:08:29;;;;;;;8.43;6.22;;;;;;;8.34;57.09;93818.44;5009689;28;20283;-70
2023/03/27 03:11:03;;;;;;;11.13;7.03;;;;;;;8.53;57.10;93809.13;5010388;28;20255;-70
2023/03/27 03:13:30;;;;;;;10.88;6.88;;;;;;;8.61;56.66;93802.00;5010192;28;20262;-72
2023/03/27 03:15:57;;;;;;;10.02;6.65;;;;;;;8.67;56.09;93775.56;5008948;28;20228;-69
2023/03/27 03:18:24;;;;;;;14.50;6.70;;;;;;;8.58;56.42;93804.66;5010633;28;20284;-70
2023/03/27 03:20:52;;;;;;;7.95;5.88;;;;;;;8.49;55.81;93800.03;5010027;28;20605;-70
2023/03/27 03:23:20;;;;;;;8.60;6.75;;;;;;;8.60;56.27;93786.88;5010408;28;20201;-70
2023/03/27 03:25:49;;;;;;;12.02;5.93;;;;;;;8.71;55.49;93772.81;5012157;28;20266;-71
2023/03/27 03:28:18;;;;;;;15.20;6.68;;;;;;;8.53;56.74;93769.44;5013601;28;20228;-69
2023/03/27 03:30:49;;;;;;;9.13;7.03;;;;;;;8.68;56.66;93787.31;5013452;28;20204;-70
2023/03/27 03:33:16;;;;;;;10.38;7.30;;;;;;;8.72;56.35;93758.44;5013702;28;20230;-69
2023/03/27 03:35:47;;;;;;;7.57;5.90;;;;;;;8.92;55.74;93770.16;5012769;28;20235;-71
2023/03/27 03:38:23;;;;;;;9.30;6.25;;;;;;;8.77;55.89;93784.38;5013578;28;20200;-69
2023/03/27 03:40:51;;;;;;;9.10;6.18;;;;;;;8.67;55.70;93775.56;5012719;28;20212;-70
2023/03/27 03:43:20;;;;;;;14.98;7.38;;;;;;;8.86;56.07;93766.22;5012860;28;20259;-70
2023/03/27 03:45:47;;;;;;;11.00;7.72;;;;;;;8.75;56.18;93794.56;5012777;28;20280;-71
2023/03/27 03:48:13;;;;;;;15.80;9.05;;;;;;;8.82;56.41;93779.91;5013365;28;20204;-71
2023/03/27 03:50:40;;;;;;;15.48;8.57;;;;;;;8.72;56.91;93776.97;5013463;28;20232;-69
2023/03/27 03:53:07;;;;;;;16.75;10.23;;;;;;;8.82;56.52;93760.47;5013060;28;20231;-68
2023/03/27 03:55:33;;;;;;;17.02;9.55;;;;;;;8.75;56.11;93794.56;5013016;28;20616;-70
2023/03/27 03:58:00;;;;;;;11.70;8.32;;;;;;;8.72;56.46;93769.38;5013043;28;20262;-69
2023/03/27 04:00:28;;;;;;;15.05;8.38;;;;;;;8.93;55.60;93756.59;5012887;28;20236;-70
2023/03/27 04:02:55;;;;;;;16.20;9.10;;;;;;;8.83;56.42;93789.97;5012877;28;20232;-70
2023/03/27 04:05:23;;;;;;;16.90;8.32;;;;;;;8.81;55.85;93768.97;5013355;28;20345;-70
2023/03/27 04:07:50;;;;;;;14.65;8.00;;;;;;;8.93;55.89;93762.47;5012853;28;20306;-71
2023/03/27 04:10:17;;;;;;;11.27;9.05;;;;;;;8.81;56.89;93781.63;5012892;28;20279;-71
2023/03/27 04:12:47;;;;;;;12.50;8.32;;;;;;;8.77;55.80;93784.38;5012362;28;20230;-72
2023/03/27 04:15:15;;;;;;;27.73;14.45;;;;;;;8.77;56.26;93770.00;5012898;28;20196;-71
2023/03/27 04:17:43;;;;;;;18.75;8.07;;;;;;;8.97;55.49;93753.03;5011900;28;20209;-70
2023/03/27 04:20:12;;;;;;;12.60;7.85;;;;;;;8.98;54.22;93764.78;5012890;28;20232;-71
2023/03/27 04:22:45;;;;;;;13.00;7.40;;;;;;;8.93;54.64;93761.66;5012300;28;21438;-71
2023/03/27 04:25:13;;;;;;;37.03;18.17;;;;;;;8.86;55.02;93764.50;5013081;28;20205;-68
2023/03/27 04:27:42;;;;;;;21.83;12.50;;;;;;;8.92;55.12;93755.78;5012127;28;20275;-69
2023/03/27 04:30:09;;;;;;;14.45;8.55;;;;;;;9.03;55.18;93783.13;5012706;28;20633;-69
2023/03/27 04:32:36;;;;;;;20.00;9.80;;;;;;;9.05;55.05;93730.69;5011984;28;20252;-71
2023/03/27 04:35:05;;;;;;;20.38;9.70;;;;;;;9.37;53.49;93726.56;5012762;28;20204;-70
2023/03/27 04:37:32;;;;;;;15.70;8.35;;;;;;;9.27;53.35;93761.66;5010609;28;20283;-70
2023/03/27 04:39:59;;;;;;;17.35;8.68;;;;;;;9.34;53.50;93712.31;5012362;28;20247;-70
2023/03/27 04:42:25;;;;;;;15.10;9.52;;;;;;;9.43;53.06;93756.66;5011795;28;20209;-69
2023/03/27 04:44:52;;;;;;;18.50;9.18;;;;;;;9.60;53.36;93760.91;5013434;28;20205;-69
2023/03/27 04:47:20;;;;;;;16.08;10.23;;;;;;;9.81;52.96;93736.97;5013176;28;20258;-70
2023/03/27 04:49:49;;;;;;;24.75;10.15;;;;;;;10.10;52.24;93760.84;5012889;28;20200;-68
2023/03/27 04:52:18;;;;;;;19.02;9.02;;;;;;;10.35;50.25;93732.47;5011521;28;20311;-69
2023/03/27 04:54:45;;;;;;;16.00;7.28;;;;;;;10.86;48.49;93747.41;5012509;28;20204;-70
2023/03/27 04:57:12;;;;;;;18.38;8.40;;;;;;;11.70;46.04;93716.28;5011623;28;20215;-69
2023/03/27 04:59:39;;;;;;;14.52;8.35;;;;;;;12.61;43.72;93708.19;5012200;28;20208;-72
2023/03/27 05:02:06;;;;;;;10.52;7.20;;;;;;;14.10;40.76;93716.22;5010936;28;20266;-70
2023/03/27 05:04:33;;;;;;;14.02;7.57;;;;;;;15.42;37.84;93698.25;5011406;28;20319;-71
2023/03/27 05:07:01;;;;;;;13.32;7.88;;;;;;;16.35;35.63;93709.13;5011867;28;20621;-70
2023/03/27 05:09:29;;;;;;;11.80;8.02;;;;;;;17.12;34.64;93724.44;5011599;28;20653;-71
2023/03/27 05:11:56;;;;;;;18.10;11.40;;;;;;;17.67;33.79;93661.72;5012100;28;20262;-71
2023/03/27 05:14:23;;;;;;;18.67;10.52;;;;;;;17.78;33.61;93717.38;5011613;28;20664;-73
2023/03/27 05:16:51;;;;;;;15.27;8.85;;;;;;;17.28;33.96;93670.94;5011977;28;20236;-71
2023/03/27 05:19:18;;;;;;;24.73;8.95;;;;;;;15.71;36.51;93662.00;5011735;28;20776;-72
2023/03/27 05:21:46;;;;;;;21.73;9.35;;;;;;;14.73;37.87;93663.25;5010966;28;20208;-71
2023/03/27 05:24:12;;;;;;;17.65;8.57;;;;;;;14.06;39.30;93673.91;5011474;28;20200;-71
2023/03/27 05:26:40;;;;;;;17.10;8.45;;;;;;;14.19;40.25;93651.69;5011650;28;20310;-72
2023/03/27 05:29:08;;;;;;;18.33;8.05;;;;;;;14.44;38.96;93650.00;5011151;28;20678;-72
2023/03/27 05:31:36;;;;;;;14.65;9.13;;;;;;;13.79;39.79;93640.06;5011339;28;20205;-72
2023/03/27 05:34:04;;;;;;;19.65;8.85;;;;;;;13.34;40.62;93639.69;5010886;28;20224;-71
2023/03/27 05:36:31;;;;;;;22.42;9.38;;;;;;;12.90;41.50;93625.53;5011708;28;20216;-70
2023/03/27 05:38:58;;;;;;;14.07;8.98;;;;;;;12.86;41.96;93618.22;5009284;28;20232;-72
2023/03/27 05:41:24;;;;;;;19.27;10.73;;;;;;;13.05;41.74;93605.06;5011362;28;20693;-71
2023/03/27 05:43:53;;;;;;;16.73;9.57;;;;;;;13.00;41.15;93604.56;5011478;28;20236;-71
2023/03/27 05:46:20;;;;;;;19.48;12.13;;;;;;;12.53;41.94;93575.34;5010850;28;20208;-75
2023/03/27 05:48:47;;;;;;;32.00;14.45;;;;;;;13.01;40.61;93575.59;5010693;28;20232;-71
2023/03/27 05:51:13;;;;;;;26.23;14.52;;;;;;;14.15;38.84;93560.84;5011613;28;20200;-72
2023/03/27 05:53:40;;;;;;;31.63;14.20;;;;;;;14.49;37.85;93543.97;5009869;28;20271;-71
2023/03/27 05:56:08;;;;;;;25.15;13.43;;;;;;;14.36;37.82;93514.25;5011753;28;20232;-72
2023/03/27 05:58:35;;;;;;;18.13;10.07;;;;;;;14.21;38.48;93529.78;5010550;28;20207;-71
2023/03/27 06:01:03;;;;;;;23.33;11.07;;;;;;;13.97;38.30;93521.31;5010907;28;20698;-72
2023/03/27 06:03:30;;;;;;;18.40;9.90;;;;;;;13.78;39.28;93503.13;5010394;28;20259;-69
2023/03/27 06:05:58;;;;;;;23.80;11.52;;;;;;;13.73;39.62;93511.09;5010840;28;20278;-71
2023/03/27 06:08:25;;;;;;;15.10;10.73;;;;;;;13.66;39.36;93491.19;5010458;28;20689;-73
2023/03/27 06:10:53;;;;;;;16.85;9.07;;;;;;;13.62;40.39;93482.94;5011113;28;20660;-72
2023/03/27 06:13:20;;;;;;;18.67;10.68;;;;;;;13.86;39.66;93499.06;5010662;28;20311;-72
2023/03/27 06:15:48;;;;;;;22.40;10.52;;;;;;;14.34;39.36;93496.50;5010740;28;20585;-71
2023/03/27 06:18:16;;;;;;;25.20;13.20;;;;;;;15.11;38.05;93483.94;5010594;28;20201;-72
2023/03/27 06:20:43;;;;;;;41.75;18.48;;;;;;;15.53;37.44;93496.00;5010132;28;20205;-72
2023/03/27 06:23:10;;;;;;;38.53;15.85;;;;;;;15.83;37.34;93485.16;5010817;28;20201;-70
2023/03/27 06:25:38;;;;;;;35.38;14.82;;;;;;;15.92;37.37;93486.16;5010389;28;20211;-74
2023/03/27 06:28:08;;;;;;;30.58;15.13;;;;;;;15.73;37.90;93470.63;5010348;28;20314;-73
2023/03/27 06:30:37;;;;;;;34.70;16.42;;;;;;;15.34;38.58;93493.25;5010262;28;20665;-71
2023/03/27 06:33:04;;;;;;;25.90;14.73;;;;;;;15.08;39.68;93479.06;5000282;28;20228;-72
2023/03/27 06:35:33;;;;;;;32.00;15.45;;;;;;;14.66;40.31;93508.66;5010389;28;20708;-71
2023/03/27 06:38:01;;;;;;;22.17;12.85;;;;;;;14.50;40.49;93484.25;5010709;28;20281;-71
2023/03/27 06:40:30;;;;;;;20.65;9.00;;;;;;;14.54;40.73;93495.88;5010734;28;20200;-71
2023/03/27 06:42:58;;;;;;;20.45;7.75;;;;;;;14.46;40.59;93472.63;5010639;28;20236;-71
2023/03/27 06:45:28;;;;;;;4.25;3.92;;;;;;;14.28;41.01;93502.88;5010159;28;20262;-70
2023/03/27 06:47:58;;;;;;;5.80;2.80;;;;;;;14.25;41.20;93492.84;5010347;28;20212;-70
2023/03/27 06:50:26;;;;;;;5.40;2.40;;;;;;;14.77;40.33;93501.03;5010161;28;20587;-71
2023/03/27 06:52:55;;;;;;;4.97;2.72;;;;;;;14.64;39.98;93506.22;5010564;28;20255;-70
2023/03/27 06:55:23;;;;;;;2.28;2.08;;;;;;;14.83;40.09;93501.38;5009997;28;20232;-71
2023/03/27 06:57:51;;;;;;;3.90;2.28;;;;;;;15.04;39.70;93503.25;5010671;28;20200;-71
2023/03/27 07:00:23;;;;;;;3.28;2.97;;;;;;;15.86;38.27;93522.50;5010981;28;20684;-71
2023/03/27 07:02:53;;;;;;;4.18;2.83;;;;;;;17.70;35.05;93514.22;5014496;28;20200;-69
2023/03/27 07:05:20;;;;;;;4.57;2.60;;;;;;;20.60;31.01;93497.81;5013910;28;20232;-71
2023/03/27 07:07:47;;;;;;;3.67;2.40;;;;;;;22.43;27.81;93504.31;5013777;28;20634;-74
2023/03/27 07:10:15;;;;;;;5.60;4.18;;;;;;;22.56;26.72;93486.53;5014178;28;20281;-71
2023/03/27 07:12:45;;;;;;;3.30;2.67;;;;;;;22.89;26.59;93472.63;5014133;28;20204;-72
2023/03/27 07:15:12;;;;;;;4.10;2.95;;;;;;;23.61;26.09;93498.56;5013117;28;20595;-72
2023/03/27 07:17:39;;;;;;;3.13;2.70;;;;;;;26.66;23.17;93484.84;5013565;28;20236;-71
2023/03/27 07:20:08;;;;;;;6.78;3.08;;;;;;;30.60;19.58;93464.00;5014179;28;20803;-72
2023/03/27 07:22:35;;;;;;;6.53;3.53;;;;;;;33.27;17.02;93461.38;5013668;28;20204;-70
2023/03/27 07:25:03;;;;;;;5.70;2.92;;;;;;;34.04;16.29;93463.81;5014042;28;20299;-72
2023/03/27 07:27:31;;;;;;;4.72;3.10;;;;;;;32.64;17.27;93469.00;5014312;28;20315;-74
2023/03/27 07:30:00;;;;;;;5.20;3.30;;;;;;;28.98;19.24;93462.25;5013962;28;20239;-72
2023/03/27 07:32:28;;;;;;;4.85;2.75;;;;;;;26.24;22.20;93481.19;5014054;28;20259;-72
2023/03/27 07:34:55;;;;;;;5.88;3.85;;;;;;;24.44;24.29;93479.81;5013240;28;20224;-69
2023/03/27 07:37:22;;;;;;;3.38;3.08;;;;;;;22.48;26.62;93479.59;5013451;28;20239;-72
2023/03/27 07:39:49;;;;;;;3.35;2.95;;;;;;;20.86;28.96;93474.59;5013874;28;20287;-74
2023/03/27 07:42:15;;;;;;;6.18;2.83;;;;;;;19.93;30.13;93490.56;5013680;28;20228;-73
2023/03/27 07:44:43;;;;;;;5.55;2.35;;;;;;;19.52;31.48;93477.25;5013132;28;20196;-71
2023/03/27 07:47:11;;;;;;;4.50;3.08;;;;;;;18.95;32.39;93473.09;5013236;28;20200;-70
2023/03/27 07:49:37;;;;;;;3.83;3.42;;;;;;;18.24;33.78;93473.44;5012744;28;20713;-71
2023/03/27 07:52:05;;;;;;;9.98;3.50;;;;;;;17.80;35.06;93467.06;5013309;28;20211;-71
2023/03/27 07:54:32;;;;;;;8.13;3.70;;;;;;;17.95;35.20;93475.19;5013986;28;20224;-71
2023/03/27 07:56:58;;;;;;;3.47;3.17;;;;;;;18.48;34.74;93474.78;5012659;28;20294;-74
2023/03/27 07:59:26;;;;;;;4.50;2.75;;;;;;;18.15;35.43;93451.09;5013552;28;20204;-73
2023/03/27 08:01:54;;;;;;;3.63;3.15;;;;;;;17.68;36.59;93468.94;5012954;28;20205;-71
2023/03/27 08:04:21;;;;;;;2.85;2.65;;;;;;;17.39;37.21;93475.72;5011452;28;20888;-73
2023/03/27 08:06:47;;;;;;;6.35;4.80;;;;;;;17.56;36.95;93454.56;5012907;28;20232;-73
2023/03/27 08:09:14;;;;;;;10.55;4.63;;;;;;;17.49;37.13;93461.16;5013010;28;20259;-73
2023/03/27 08:11:42;;;;;;;3.33;3.13;;;;;;;17.60;37.20;93455.91;5008932;28;20232;-71
2023/03/27 08:14:08;;;;;;;3.45;2.63;;;;;;;17.48;37.97;93448.44;5012778;28;20611;-72
2023/03/27 08:16:36;;;;;;;4.72;3.97;;;;;;;17.30;37.92;93450.84;5011907;28;20211;-71
2023/03/27 08:19:05;;;;;;;3.05;2.85;;;;;;;16.80;38.68;93448.22;5001463;28;20204;-70
2023/03/27 08:21:33;;;;;;;4.55;3.10;;;;;;;16.54;39.86;93434.97;5011501;28;20307;-69
2023/03/27 08:24:01;;;;;;;5.20;3.10;;;;;;;16.19;40.73;93432.69;5010311;28;20249;-70
2023/03/27 08:26:28;;;;;;;3.60;3.28;;;;;;;15.86;42.04;93420.03;5012131;28;20227;-73
2023/03/27 08:28:55;;;;;;;3.95;2.92;;;;;;;15.99;41.88;93415.56;5011037;28;20228;-69
2023/03/27 08:31:22;;;;;;;3.65;3.35;;;;;;;16.09;41.55;93424.13;5013001;28;20226;-72
2023/03/27 08:33:49;;;;;;;3.83;3.20;;;;;;;15.72;42.35;93418.59;5009844;28;20354;-71
2023/03/27 08:36:18;;;;;;;3.83;3.50;;;;;;;15.50;42.94;93423.75;5012091;28;20235;-69
2023/03/27 08:38:45;;;;;;;3.67;2.65;;;;;;;15.30;43.27;93427.88;5011158;28;20345;-71
2023/03/27 08:41:25;;;;;;;3.17;2.88;;;;;;;15.27;43.11;93428.94;5009885;28;20312;-70
2023/03/27 08:43:56;;;;;;;2.90;2.70;;;;;;;15.75;42.37;93436.28;5008513;28;20209;-66
2023/03/27 08:46:28;;;;;;;7.70;2.97;;;;;;;16.30;41.27;93440.34;5012177;28;20269;-71
2023/03/27 08:48:59;;;;;;;3.10;2.90;;;;;;;16.29;41.32;93455.84;5011170;28;20692;-69
2023/03/27 08:51:31;;;;;;;3.33;3.10;;;;;;;15.77;42.41;93472.00;5010114;28;20302;-72
2023/03/27 08:54:05;;;;;;;3.30;2.90;;;;;;;15.41;43.81;93434.69;5011693;28;20259;-69
2023/03/27 08:56:31;;;;;;;4.07;2.95;;;;;;;15.45;42.98;93428.41;5010090;28;20694;-70
2023/03/27 08:58:58;;;;;;;3.55;2.40;;;;;;;15.81;43.18;93409.38;5012006;28;20320;-70
2023/03/27 09:01:29;;;;;;;4.07;3.05;;;;;;;16.18;42.74;93379.00;5010235;28;20697;-70
2023/03/27 09:04:03;;;;;;;4.03;3.38;;;;;;;17.09;41.44;93365.38;5011754;28;20231;-72
2023/03/27 09:06:37;;;;;;;7.90;3.30;;;;;;;18.31;38.87;93355.44;5011888;28;20851;-72
2023/03/27 09:09:11;;;;;;;3.90;3.55;;;;;;;19.32;36.50;93341.72;5011780;28;20203;-71
2023/03/27 09:11:51;;;;;;;6.75;3.63;;;;;;;20.19;35.27;93346.22;5009898;28;20296;-71
2023/03/27 09:14:27;;;;;;;4.13;3.35;;;;;;;20.55;34.61;93368.41;5010638;28;20321;-71
2023/03/27 09:17:00;;;;;;;7.93;3.80;;;;;;;20.33;33.23;93364.53;5012171;28;20334;-72
2023/03/27 09:19:35;;;;;;;6.90;3.17;;;;;;;19.81;32.95;93360.25;5011145;28;20294;-69
2023/03/27 09:22:11;;;;;;;14.70;8.13;;;;;;;19.47;34.03;93366.03;5010372;28;20716;-71
2023/03/27 09:24:42;;;;;;;7.25;5.10;;;;;;;19.61;33.29;93372.47;5011790;28;20235;-73
2023/03/27 09:27:17;;;;;;;4.95;2.67;;;;;;;19.29;33.24;93386.63;5011267;28;20231;-71
2023/03/27 09:29:45;;;;;;;3.97;2.65;;;;;;;18.41;34.44;93406.81;5012228;28;20296;-72
2023/03/27 09:32:14;;;;;;;10.52;2.67;;;;;;;17.57;36.85;93407.34;5010962;28;20425;-70
2023/03/27 09:34:43;;;;;;;9.20;3.65;;;;;;;17.06;38.71;93401.59;5011021;28;20310;-71
2023/03/27 09:37:13;;;;;;;6.38;3.10;;;;;;;16.83;39.85;93385.56;5009985;28;20212;-72
2023/03/27 09:39:46;;;;;;;6.93;2.85;;;;;;;16.77;40.49;93386.09;5011119;28;20288;-72
2023/03/27 09:42:18;;;;;;;3.50;2.58;;;;;;;16.46;41.06;93392.94;5010889;28;20205;-69
2023/03/27 09:44:49;;;;;;;3.58;2.90;;;;;;;16.27;41.87;93389.34;5011739;28;20286;-71
2023/03/27 09:47:19;;;;;;;2.95;2.75;;;;;;;16.30;42.39;93383.97;5010885;28;20207;-73
2023/03/27 09:49:50;;;;;;;5.53;2.80;;;;;;;16.42;42.03;93371.03;5010598;28;20294;-71
2023/03/27 09:52:37;;;;;;;4.05;2.72;;;;;;;16.67;42.21;93368.09;5009768;28;20230;-72
2023/03/27 09:55:21;;;;;;;5.72;3.10;;;;;;;16.85;41.81;93368.28;5009895;28;20363;-73
2023/03/27 09:57:49;;;;;;;4.72;2.72;;;;;;;16.96;41.59;93376.72;5010572;28;20645;-72
2023/03/27 10:00:28;;;;;;;4.90;3.00;;;;;;;16.88;42.16;93373.16;5010475;28;20239;-72
2023/03/27 10:03:04;;;;;;;3.97;2.80;;;;;;;16.78;42.06;93378.28;5010638;28;20219;-70
2023/03/27 10:05:31;;;;;;;3.80;3.00;;;;;;;16.82;42.62;93374.50;5011624;28;20203;-71
2023/03/27 10:08:00;;;;;;;2.95;2.75;;;;;;;16.77;42.48;93379.22;5010737;28;20235;-73
2023/03/27 10:10:31;;;;;;;4.70;3.22;;;;;;;16.83;42.66;93381.22;5010679;28;20285;-72
2023/03/27 10:12:59;;;;;;;2.95;2.63;;;;;;;16.87;42.32;93390.31;5008518;28;20295;-72
2023/03/27 10:15:32;;;;;;;6.03;3.25;;;;;;;16.89;43.38;93408.94;5009702;28;20313;-72
2023/03/27 10:18:01;;;;;;;3.30;3.00;;;;;;;16.93;44.58;93410.31;5009322;28;20715;-70
2023/03/27 10:20:27;;;;;;;5.97;3.45;;;;;;;16.94;45.10;93400.88;5006974;28;20249;-72
2023/03/27 10:22:55;;;;;;;3.33;3.08;;;;;;;16.86;47.12;93403.25;5010373;28;20216;-71
2023/03/27 10:25:32;;;;;;;5.25;3.97;;;;;;;16.80;46.38;93393.53;5009719;28;20219;-74
2023/03/27 10:28:10;;;;;;;13.27;3.72;;;;;;;16.80;48.77;93386.66;5010860;28;20329;-71
2023/03/27 10:30:39;;;;;;;5.68;3.92;;;;;;;16.86;49.61;93383.53;5009125;28;20632;-71
2023/03/27 10:33:06;;;;;;;5.28;3.63;;;;;;;16.70;49.75;93387.53;5010392;28;20262;-73
2023/03/27 10:35:36;;;;;;;3.85;3.40;;;;;;;16.69;50.02;93394.41;5008825;28;20230;-70
2023/03/27 10:38:06;;;;;;;4.43;3.50;;;;;;;16.82;50.76;93382.22;5010706;28;20208;-72
2023/03/27 10:40:37;;;;;;;3.75;3.20;;;;;;;17.04;49.23;93382.94;5008598;28;20674;-72
2023/03/27 10:43:07;;;;;;;5.38;2.60;;;;;;;17.10;47.11;93372.94;5011169;28;20649;-70
2023/03/27 10:45:47;;;;;;;5.00;3.33;;;;;;;17.06;47.70;93366.47;5010335;28;20239;-72
2023/03/27 10:48:30;;;;;;;4.75;3.28;;;;;;;16.90;48.12;93340.50;5009882;28;20648;-73
2023/03/27 10:51:04;;;;;;;2.95;2.65;;;;;;;16.70;48.21;93333.69;5010084;28;20745;-69
2023/03/27 10:53:37;;;;;;;3.47;3.17;;;;;;;16.68;47.47;93333.81;5008135;28;20685;-72
2023/03/27 10:56:14;;;;;;;5.90;5.10;;;;;;;16.70;48.11;93313.97;5010498;28;20235;-70
2023/03/27 10:58:46;;;;;;;13.52;6.85;;;;;;;16.73;47.90;93306.03;5009569;28;20285;-71
2023/03/27 11:01:20;;;;;;;4.68;4.32;;;;;;;16.89;48.52;93314.03;5011411;28;20904;-69
2023/03/27 11:03:51;;;;;;;4.30;3.65;;;;;;;16.97;48.72;93311.63;5010138;28;20797;-71
2023/03/27 11:06:23;;;;;;;3.55;2.97;;;;;;;17.04;49.80;93321.34;5010621;28;20851;-71
2023/03/27 11:09:04;;;;;;;3.97;2.90;;;;;;;16.96;50.55;93330.53;5012900;28;20204;-71
2023/03/27 11:11:36;;;;;;;2.80;2.47;;;;;;;16.61;50.39;93322.41;5010765;28;20239;-69
2023/03/27 11:14:09;;;;;;;5.90;2.45;;;;;;;16.51;52.53;93334.41;5010055;28;20334;-69
2023/03/27 11:16:39;;;;;;;6.13;2.47;;;;;;;16.34;51.65;93339.16;5010317;28;20796;-69
2023/03/27 11:19:26;;;;;;;2.95;2.72;;;;;;;16.17;52.67;93342.31;5010615;28;20835;-70
2023/03/27 11:21:57;;;;;;;7.00;2.78;;;;;;;15.98;53.33;93362.72;5010766;28;20297;-71
2023/03/27 11:24:29;;;;;;;2.78;2.58;;;;;;;15.53;54.46;93372.31;5008577;28;20294;-69
2023/03/27 11:27:05;;;;;;;2.33;2.10;;;;;;;15.34;54.93;93393.44;5010289;28;20223;-70
2023/03/27 11:29:37;;;;;;;2.40;2.20;;;;;;;15.08;56.77;93404.88;5009682;28;20298;-71
2023/03/27 11:32:17;;;;;;;4.20;2.50;;;;;;;14.75;58.56;93413.38;5008328;28;20204;-70
2023/03/27 11:34:51;;;;;;;3.00;1.70;;;;;;;14.46;58.45;93425.78;5008686;28;20334;-68
2023/03/27 11:37:23;;;;;;;2.30;2.08;;;;;;;14.26;59.52;93417.03;5008917;28;20204;-70
2023/03/27 11:39:55;;;;;;;4.53;2.08;;;;;;;14.21;60.37;93436.97;5009572;28;20292;-70
2023/03/27 11:42:26;;;;;;;2.92;2.70;;;;;;;14.09;61.15;93448.94;5008559;28;20270;-71
2023/03/27 11:44:53;;;;;;;3.35;2.92;;;;;;;14.07;61.11;93453.34;5009955;28;20235;-70